createdAt,value
2018-06-27T00:00:03.160Z,1008.35
2018-06-27T00:01:03.153Z,1008.34
2018-06-27T00:02:03.145Z,1008.30
2018-06-27T00:03:03.141Z,1008.30
2018-06-27T00:04:03.131Z,1008.31
2018-06-27T00:05:03.128Z,1008.27
2018-06-27T00:06:03.118Z,1008.24
2018-06-27T00:07:03.110Z,1008.29
2018-06-27T00:08:03.102Z,1008.27
2018-06-27T00:09:03.098Z,1008.33
2018-06-27T00:10:03.088Z,1008.33
2018-06-27T00:11:03.081Z,1008.32
2018-06-27T00:12:03.096Z,1008.35
2018-06-27T00:13:03.069Z,1008.37
2018-06-27T00:14:03.059Z,1008.39
2018-06-27T00:15:03.053Z,1008.38
2018-06-27T00:16:03.047Z,1008.36
2018-06-27T00:17:03.039Z,1008.40
2018-06-27T00:18:03.031Z,1008.38
2018-06-27T00:19:03.025Z,1008.38
2018-06-27T00:20:03.018Z,1008.42
2018-06-27T00:21:03.010Z,1008.43
2018-06-27T00:22:03.003Z,1008.39
2018-06-27T00:23:02.994Z,1008.37
2018-06-27T00:24:02.989Z,1008.40
2018-06-27T00:25:02.980Z,1008.37
2018-06-27T00:26:02.972Z,1008.36
2018-06-27T00:27:02.965Z,1008.34
2018-06-27T00:28:02.961Z,1008.35
2018-06-27T00:29:02.951Z,1008.32
2018-06-27T00:30:02.944Z,1008.34
2018-06-27T00:31:02.939Z,1008.31
2018-06-27T00:32:02.929Z,1008.30
2018-06-27T00:33:02.924Z,1008.32
2018-06-27T00:34:02.914Z,1008.30
2018-06-27T00:35:02.906Z,1008.32
2018-06-27T00:36:02.899Z,1008.31
2018-06-27T00:37:02.892Z,1008.31
2018-06-27T00:38:02.884Z,1008.29
2018-06-27T00:39:02.885Z,1008.33
2018-06-27T00:40:02.871Z,1008.30
2018-06-27T00:41:02.862Z,1008.31
2018-06-27T00:42:02.859Z,1008.30
2018-06-27T00:43:02.847Z,1008.33
2018-06-27T00:44:02.840Z,1008.34
2018-06-27T00:45:02.843Z,1008.35
2018-06-27T00:46:02.825Z,1008.37
2018-06-27T00:47:02.817Z,1008.39
2018-06-27T00:48:02.813Z,1008.38
2018-06-27T00:49:02.802Z,1008.37
2018-06-27T00:50:02.794Z,1008.38
2018-06-27T00:51:02.789Z,1008.39
2018-06-27T00:52:02.783Z,1008.34
2018-06-27T00:53:02.773Z,1008.35
2018-06-27T00:54:02.764Z,1008.37
2018-06-27T00:55:02.757Z,1008.39
2018-06-27T00:56:02.751Z,1008.42
2018-06-27T00:57:02.743Z,1008.38
2018-06-27T00:58:02.734Z,1008.36
2018-06-27T00:59:02.727Z,1008.38
2018-06-27T01:00:02.720Z,1008.36
2018-06-27T01:01:02.712Z,1008.38
2018-06-27T01:02:02.705Z,1008.36
2018-06-27T01:03:02.699Z,1008.34
2018-06-27T01:04:02.693Z,1008.36
2018-06-27T01:05:02.682Z,1008.34
2018-06-27T01:06:02.676Z,1008.35
2018-06-27T01:07:02.667Z,1008.35
2018-06-27T01:08:02.660Z,1008.34
2018-06-27T01:09:02.652Z,1008.38
2018-06-27T01:10:02.645Z,1008.37
2018-06-27T01:11:02.636Z,1008.34
2018-06-27T01:12:02.629Z,1008.34
2018-06-27T01:13:02.622Z,1008.34
2018-06-27T01:14:02.816Z,1008.33
2018-06-27T01:15:02.606Z,1008.32
2018-06-27T01:16:02.600Z,1008.32
2018-06-27T01:17:02.591Z,1008.30
2018-06-27T01:18:02.583Z,1008.31
2018-06-27T01:19:02.576Z,1008.29
2018-06-27T01:20:02.581Z,1008.28
2018-06-27T01:21:02.561Z,1008.26
2018-06-27T01:22:02.552Z,1008.25
2018-06-27T01:23:02.549Z,1008.24
2018-06-27T01:24:02.538Z,1008.23
2018-06-27T01:25:02.530Z,1008.23
2018-06-27T01:26:02.522Z,1008.23
2018-06-27T01:27:02.516Z,1008.21
2018-06-27T01:28:02.506Z,1008.25
2018-06-27T01:29:02.499Z,1008.25
2018-06-27T01:30:02.695Z,1008.25
2018-06-27T01:31:02.483Z,1008.23
2018-06-27T01:32:02.484Z,1008.26
2018-06-27T01:33:02.472Z,1008.27
2018-06-27T01:34:02.459Z,1008.29
2018-06-27T01:35:02.453Z,1008.32
2018-06-27T01:36:02.448Z,1008.33
2018-06-27T01:37:02.437Z,1008.35
2018-06-27T01:38:02.434Z,1008.37
2018-06-27T01:39:02.421Z,1008.34
2018-06-27T01:40:02.414Z,1008.37
2018-06-27T01:41:02.406Z,1008.34
2018-06-27T01:42:02.398Z,1008.35
2018-06-27T01:43:02.390Z,1008.33
2018-06-27T01:44:02.384Z,1008.32
2018-06-27T01:45:02.375Z,1008.35
2018-06-27T01:46:02.366Z,1008.37
2018-06-27T01:47:02.359Z,1008.33
2018-06-27T01:48:02.352Z,1008.34
2018-06-27T01:49:02.344Z,1008.34
2018-06-27T01:50:02.336Z,1008.30
2018-06-27T01:51:02.329Z,1008.33
2018-06-27T01:52:02.323Z,1008.32
2018-06-27T01:53:02.313Z,1008.31
2018-06-27T01:54:02.310Z,1008.32
2018-06-27T01:55:02.298Z,1008.31
2018-06-27T01:56:02.290Z,1008.33
2018-06-27T01:57:02.282Z,1008.31
2018-06-27T01:58:02.273Z,1008.33
2018-06-27T01:59:02.266Z,1008.34
2018-06-27T02:00:02.260Z,1008.38
2018-06-27T02:01:02.251Z,1008.34
2018-06-27T02:02:02.248Z,1008.37
2018-06-27T02:03:02.235Z,1008.33
2018-06-27T02:04:02.227Z,1008.37
2018-06-27T02:05:02.220Z,1008.38
2018-06-27T02:06:02.212Z,1008.39
2018-06-27T02:07:02.203Z,1008.40
2018-06-27T02:08:02.196Z,1008.41
2018-06-27T02:09:02.188Z,1008.39
2018-06-27T02:10:02.179Z,1008.37
2018-06-27T02:11:02.172Z,1008.38
2018-06-27T02:12:02.164Z,1008.37
2018-06-27T02:13:02.159Z,1008.38
2018-06-27T02:14:02.153Z,1008.37
2018-06-27T02:15:02.141Z,1008.35
2018-06-27T02:16:02.133Z,1008.32
2018-06-27T02:17:02.127Z,1008.29
2018-06-27T02:18:02.116Z,1008.30
2018-06-27T02:19:02.112Z,1008.28
2018-06-27T02:20:02.102Z,1008.31
2018-06-27T02:21:02.093Z,1008.33
2018-06-27T02:22:02.088Z,1008.30
2018-06-27T02:23:02.077Z,1008.26
2018-06-27T02:24:02.069Z,1008.25
2018-06-27T02:25:02.062Z,1008.25
2018-06-27T02:26:02.053Z,1008.24
2018-06-27T02:27:02.045Z,1008.29
2018-06-27T02:28:02.037Z,1008.22
2018-06-27T02:29:02.030Z,1008.26
2018-06-27T02:30:02.026Z,1008.27
2018-06-27T02:31:02.015Z,1008.25
2018-06-27T02:32:02.009Z,1008.25
2018-06-27T02:33:01.998Z,1008.26
2018-06-27T02:34:02.250Z,1008.25
2018-06-27T02:35:01.981Z,1008.23
2018-06-27T02:36:01.973Z,1008.23
2018-06-27T02:37:01.985Z,1008.25
2018-06-27T02:38:01.961Z,1008.22
2018-06-27T02:39:01.949Z,1008.24
2018-06-27T02:40:01.941Z,1008.24
2018-06-27T02:41:01.933Z,1008.26
2018-06-27T02:42:01.925Z,1008.25
2018-06-27T02:43:01.916Z,1008.27
2018-06-27T02:44:01.908Z,1008.28
2018-06-27T02:45:01.904Z,1008.29
2018-06-27T02:46:01.892Z,1008.28
2018-06-27T02:47:01.884Z,1008.27
2018-06-27T02:48:01.880Z,1008.29
2018-06-27T02:49:01.879Z,1008.30
2018-06-27T02:50:01.869Z,1008.31
2018-06-27T02:51:01.853Z,1008.33
2018-06-27T02:52:01.844Z,1008.32
2018-06-27T02:53:01.842Z,1008.37
2018-06-27T02:54:01.832Z,1008.38
2018-06-27T02:55:01.820Z,1008.39
2018-06-27T02:56:01.812Z,1008.41
2018-06-27T02:57:01.866Z,1008.42
2018-06-27T02:58:01.795Z,1008.44
2018-06-27T02:59:01.793Z,1008.40
2018-06-27T03:00:01.780Z,1008.45
2018-06-27T03:01:01.771Z,1008.45
2018-06-27T03:02:01.770Z,1008.43
2018-06-27T03:03:01.754Z,1008.44
2018-06-27T03:04:01.746Z,1008.42
2018-06-27T03:05:01.754Z,1008.43
2018-06-27T03:06:01.731Z,1008.39
2018-06-27T03:07:01.730Z,1008.38
2018-06-27T03:08:01.715Z,1008.38
2018-06-27T03:09:01.706Z,1008.42
2018-06-27T03:10:01.697Z,1008.42
2018-06-27T03:11:01.691Z,1008.42
2018-06-27T03:12:01.681Z,1008.42
2018-06-27T03:13:01.673Z,1008.42
2018-06-27T03:14:01.671Z,1008.45
2018-06-27T03:15:01.656Z,1008.43
2018-06-27T03:16:01.652Z,1008.48
2018-06-27T03:17:01.639Z,1008.50
2018-06-27T03:18:01.635Z,1008.48
2018-06-27T03:19:01.622Z,1008.50
2018-06-27T03:20:01.650Z,1008.49
2018-06-27T03:21:01.611Z,1008.48
2018-06-27T03:22:01.599Z,1008.45
2018-06-27T03:23:01.590Z,1008.46
2018-06-27T03:24:01.584Z,1008.45
2018-06-27T03:25:01.573Z,1008.43
2018-06-27T03:26:01.565Z,1008.48
2018-06-27T03:27:01.555Z,1008.44
2018-06-27T03:28:01.548Z,1008.47
2018-06-27T03:29:01.540Z,1008.45
2018-06-27T03:30:01.540Z,1008.54
2018-06-27T03:31:01.532Z,1008.50
2018-06-27T03:32:01.524Z,1008.51
2018-06-27T03:33:01.510Z,1008.53
2018-06-27T03:34:01.503Z,1008.55
2018-06-27T03:35:01.497Z,1008.56
2018-06-27T03:36:01.486Z,1008.58
2018-06-27T03:37:01.473Z,1008.62
2018-06-27T03:38:01.468Z,1008.58
2018-06-27T03:39:01.458Z,1008.61
2018-06-27T03:40:01.453Z,1008.60
2018-06-27T03:41:01.443Z,1008.58
2018-06-27T03:42:01.431Z,1008.58
2018-06-27T03:43:01.422Z,1008.58
2018-06-27T03:44:01.421Z,1008.57
2018-06-27T03:45:01.409Z,1008.55
2018-06-27T03:46:01.399Z,1008.60
2018-06-27T03:47:01.391Z,1008.61
2018-06-27T03:48:01.385Z,1008.60
2018-06-27T03:49:01.374Z,1008.61
2018-06-27T03:50:01.367Z,1008.57
2018-06-27T03:51:01.358Z,1008.58
2018-06-27T03:52:01.349Z,1008.57
2018-06-27T03:53:01.340Z,1008.62
2018-06-27T03:54:01.330Z,1008.59
2018-06-27T03:55:01.323Z,1008.59
2018-06-27T03:56:01.319Z,1008.59
2018-06-27T03:57:01.308Z,1008.54
2018-06-27T03:58:01.297Z,1008.54
2018-06-27T03:59:01.958Z,1008.57
2018-06-27T04:00:01.281Z,1008.59
2018-06-27T04:01:01.276Z,1008.62
2018-06-27T04:02:01.264Z,1008.58
2018-06-27T04:03:01.260Z,1008.60
2018-06-27T04:04:01.252Z,1008.58
2018-06-27T04:05:01.242Z,1008.58
2018-06-27T04:06:01.232Z,1008.57
2018-06-27T04:07:01.222Z,1008.60
2018-06-27T04:08:01.217Z,1008.64
2018-06-27T04:09:01.206Z,1008.58
2018-06-27T04:10:01.201Z,1008.62
2018-06-27T04:11:01.190Z,1008.64
2018-06-27T04:12:01.182Z,1008.63
2018-06-27T04:13:01.490Z,1008.65
2018-06-27T04:14:01.168Z,1008.66
2018-06-27T04:15:01.161Z,1008.66
2018-06-27T04:16:01.149Z,1008.66
2018-06-27T04:17:01.143Z,1008.65
2018-06-27T04:18:01.334Z,1008.66
2018-06-27T04:19:01.125Z,1008.67
2018-06-27T04:20:01.120Z,1008.69
2018-06-27T04:21:01.108Z,1008.65
2018-06-27T04:22:01.099Z,1008.66
2018-06-27T04:23:01.093Z,1008.66
2018-06-27T04:24:01.083Z,1008.67
2018-06-27T04:25:01.079Z,1008.66
2018-06-27T04:26:01.071Z,1008.66
2018-06-27T04:27:01.062Z,1008.70
2018-06-27T04:28:01.054Z,1008.70
2018-06-27T04:29:01.045Z,1008.72
2018-06-27T04:30:01.034Z,1008.76
2018-06-27T04:31:01.029Z,1008.75
2018-06-27T04:32:01.018Z,1008.73
2018-06-27T04:33:01.010Z,1008.78
2018-06-27T04:34:01.001Z,1008.77
2018-06-27T04:35:01.003Z,1008.73
2018-06-27T04:36:01.056Z,1008.74
2018-06-27T04:37:00.980Z,1008.72
2018-06-27T04:38:00.980Z,1008.72
2018-06-27T04:39:00.967Z,1008.74
2018-06-27T04:40:01.159Z,1008.76
2018-06-27T04:41:00.950Z,1008.75
2018-06-27T04:42:00.939Z,1008.77
2018-06-27T04:43:00.929Z,1008.75
2018-06-27T04:44:00.922Z,1008.78
2018-06-27T04:45:00.914Z,1008.74
2018-06-27T04:46:00.907Z,1008.76
2018-06-27T04:47:00.898Z,1008.80
2018-06-27T04:48:00.891Z,1008.79
2018-06-27T04:49:00.882Z,1008.80
2018-06-27T04:50:00.878Z,1008.79
2018-06-27T04:51:00.866Z,1008.80
2018-06-27T04:52:00.860Z,1008.80
2018-06-27T04:53:00.851Z,1008.82
2018-06-27T04:54:00.842Z,1008.86
2018-06-27T04:55:00.891Z,1008.87
2018-06-27T04:56:00.831Z,1008.87
2018-06-27T04:57:00.819Z,1008.86
2018-06-27T04:58:00.815Z,1008.88
2018-06-27T04:59:00.805Z,1008.86
2018-06-27T05:00:00.795Z,1008.87
2018-06-27T05:01:00.787Z,1008.85
2018-06-27T05:02:00.781Z,1008.85
2018-06-27T05:03:00.981Z,1008.84
2018-06-27T05:04:00.768Z,1008.83
2018-06-27T05:05:00.762Z,1008.81
2018-06-27T05:06:00.752Z,1008.79
2018-06-27T05:07:00.741Z,1008.80
2018-06-27T05:08:00.735Z,1008.81
2018-06-27T05:09:00.726Z,1008.85
2018-06-27T05:10:00.718Z,1008.87
2018-06-27T05:11:00.715Z,1008.84
2018-06-27T05:12:00.703Z,1008.83
2018-06-27T05:13:00.699Z,1008.85
2018-06-27T05:14:00.889Z,1008.86
2018-06-27T05:15:00.680Z,1008.85
2018-06-27T05:16:00.689Z,1008.85
2018-06-27T05:17:00.670Z,1008.85
2018-06-27T05:18:00.658Z,1008.80
2018-06-27T05:19:00.651Z,1008.80
2018-06-27T05:20:00.645Z,1008.78
2018-06-27T05:21:00.636Z,1008.80
2018-06-27T05:22:00.634Z,1008.81
2018-06-27T05:23:00.621Z,1008.84
2018-06-27T05:24:00.614Z,1008.83
2018-06-27T05:25:00.608Z,1008.83
2018-06-27T05:26:00.599Z,1008.78
2018-06-27T05:27:00.592Z,1008.80
2018-06-27T05:28:00.585Z,1008.82
2018-06-27T05:29:00.581Z,1008.82
2018-06-27T05:30:00.570Z,1008.82
2018-06-27T05:31:00.567Z,1008.79
2018-06-27T05:32:00.758Z,1008.84
2018-06-27T05:33:00.550Z,1008.85
2018-06-27T05:34:00.653Z,1008.85
2018-06-27T05:35:00.539Z,1008.84
2018-06-27T05:36:00.528Z,1008.86
2018-06-27T05:37:00.523Z,1008.84
2018-06-27T05:38:00.518Z,1008.82
2018-06-27T05:39:00.506Z,1008.84
2018-06-27T05:40:00.508Z,1008.85
2018-06-27T05:41:00.493Z,1008.86
2018-06-27T05:42:00.489Z,1008.91
2018-06-27T05:43:00.483Z,1008.87
2018-06-27T05:44:00.472Z,1008.86
2018-06-27T05:45:00.471Z,1008.86
2018-06-27T05:46:00.459Z,1008.86
2018-06-27T05:47:00.452Z,1008.84
2018-06-27T05:48:00.447Z,1008.82
2018-06-27T05:49:00.439Z,1008.87
2018-06-27T05:50:00.431Z,1008.88
2018-06-27T05:51:00.426Z,1008.85
2018-06-27T05:52:00.623Z,1008.86
2018-06-27T05:53:00.413Z,1008.89
2018-06-27T05:54:00.409Z,1008.87
2018-06-27T05:55:00.398Z,1008.89
2018-06-27T05:56:00.396Z,1008.86
2018-06-27T05:57:00.388Z,1008.87
2018-06-27T05:58:00.386Z,1008.90
2018-06-27T05:59:00.371Z,1008.89
2018-06-27T06:00:00.367Z,1008.89
2018-06-27T06:01:00.364Z,1008.89
2018-06-27T06:02:00.352Z,1008.88
2018-06-27T06:03:00.352Z,1008.85
2018-06-27T06:04:00.340Z,1008.88
2018-06-27T06:05:00.536Z,1008.91
2018-06-27T06:06:00.329Z,1008.90
2018-06-27T06:07:00.328Z,1008.87
2018-06-27T06:08:00.314Z,1008.89
2018-06-27T06:09:00.308Z,1008.87
2018-06-27T06:10:00.311Z,1008.85
2018-06-27T06:11:00.297Z,1008.89
2018-06-27T06:12:00.291Z,1008.86
2018-06-27T06:13:00.284Z,1008.88
2018-06-27T06:14:00.282Z,1008.83
2018-06-27T06:15:00.273Z,1008.86
2018-06-27T06:16:00.268Z,1008.84
2018-06-27T06:17:00.264Z,1008.86
2018-06-27T06:18:00.257Z,1008.84
2018-06-27T06:19:00.248Z,1008.85
2018-06-27T06:20:00.246Z,1008.88
2018-06-27T06:21:00.242Z,1008.82
2018-06-27T06:22:00.231Z,1008.84
2018-06-27T06:23:00.229Z,1008.88
2018-06-27T06:24:00.422Z,1008.85
2018-06-27T06:25:00.215Z,1008.87
2018-06-27T06:26:00.208Z,1008.87
2018-06-27T06:27:00.206Z,1008.87
2018-06-27T06:28:00.197Z,1008.88
2018-06-27T06:29:00.193Z,1008.91
2018-06-27T06:30:00.186Z,1008.92
2018-06-27T06:31:00.184Z,1008.92
2018-06-27T06:32:00.180Z,1008.91
2018-06-27T06:33:00.174Z,1008.92
2018-06-27T06:34:00.164Z,1008.98
2018-06-27T06:35:00.159Z,1008.96
2018-06-27T06:36:00.154Z,1008.98
2018-06-27T06:37:00.148Z,1008.98
2018-06-27T06:38:00.142Z,1008.98
2018-06-27T06:39:00.138Z,1008.97
2018-06-27T06:40:00.133Z,1009.01
2018-06-27T06:41:00.131Z,1009.01
2018-06-27T06:42:00.121Z,1009.01
2018-06-27T06:43:00.117Z,1009.00
2018-06-27T06:44:00.115Z,1009.07
2018-06-27T06:45:00.110Z,1009.05
2018-06-27T06:46:00.120Z,1009.04
2018-06-27T06:47:00.100Z,1009.06
2018-06-27T06:48:00.092Z,1009.08
2018-06-27T06:49:00.091Z,1009.09
2018-06-27T06:50:00.084Z,1009.09
2018-06-27T06:51:00.078Z,1009.11
2018-06-27T06:52:00.076Z,1009.12
2018-06-27T06:53:00.069Z,1009.12
2018-06-27T06:54:00.067Z,1009.12
2018-06-27T06:55:00.065Z,1009.10
2018-06-27T06:56:00.055Z,1009.09
2018-06-27T06:57:00.055Z,1009.07
2018-06-27T06:58:00.248Z,1009.10
2018-06-27T06:59:00.044Z,1009.10
2018-06-27T07:00:00.048Z,1009.14
2018-06-27T07:01:00.047Z,1009.12
2018-06-27T07:02:00.032Z,1009.13
2018-06-27T07:03:00.025Z,1009.14
2018-06-27T07:04:00.029Z,1009.15
2018-06-27T07:05:00.131Z,1009.16
2018-06-27T07:06:00.013Z,1009.12
2018-06-27T07:07:00.008Z,1009.16
2018-06-27T07:08:00.012Z,1009.13
2018-06-27T07:09:00.803Z,1009.15
2018-06-27T07:09:59.995Z,1009.15
2018-06-27T07:11:00.030Z,1009.14
2018-06-27T07:11:59.989Z,1009.19
2018-06-27T07:12:59.991Z,1009.18
2018-06-27T07:13:59.985Z,1009.12
2018-06-27T07:14:59.980Z,1009.15
2018-06-27T07:15:59.979Z,1009.10
2018-06-27T07:16:59.976Z,1009.12
2018-06-27T07:17:59.974Z,1009.08
2018-06-27T07:18:59.973Z,1009.12
2018-06-27T07:19:59.966Z,1009.14
2018-06-27T07:20:59.967Z,1009.09
2018-06-27T07:21:59.961Z,1009.09
2018-06-27T07:22:59.964Z,1009.10
2018-06-27T07:23:59.959Z,1009.11
2018-06-27T07:24:59.963Z,1009.09
2018-06-27T07:25:59.963Z,1009.09
2018-06-27T07:26:59.955Z,1009.10
2018-06-27T07:28:00.156Z,1009.11
2018-06-27T07:28:59.954Z,1009.14
2018-06-27T07:30:00.010Z,1009.09
2018-06-27T07:30:59.951Z,1009.12
2018-06-27T07:32:00.157Z,1009.13
2018-06-27T07:32:59.949Z,1009.12
2018-06-27T07:33:59.948Z,1009.13
2018-06-27T07:34:59.949Z,1009.13
2018-06-27T07:35:59.971Z,1009.12
2018-06-27T07:36:59.948Z,1009.14
2018-06-27T07:37:59.948Z,1009.16
2018-06-27T07:38:59.955Z,1009.16
2018-06-27T07:39:59.951Z,1009.20
2018-06-27T07:40:59.953Z,1009.15
2018-06-27T07:41:59.954Z,1009.17
2018-06-27T07:42:59.963Z,1009.18
2018-06-27T07:43:59.965Z,1009.24
2018-06-27T07:44:59.965Z,1009.22
2018-06-27T07:45:59.969Z,1009.21
2018-06-27T07:46:59.973Z,1009.21
2018-06-27T07:47:59.983Z,1009.20
2018-06-27T07:48:59.985Z,1009.24
2018-06-27T07:49:59.990Z,1009.22
2018-06-27T07:51:00.199Z,1009.25
2018-06-27T07:52:00.008Z,1009.28
2018-06-27T07:53:00.030Z,1009.24
2018-06-27T07:54:00.018Z,1009.20
2018-06-27T07:55:00.036Z,1009.16
2018-06-27T07:56:00.044Z,1009.18
2018-06-27T07:57:00.042Z,1009.19
2018-06-27T07:58:00.050Z,1009.17
2018-06-27T07:59:00.056Z,1009.18
2018-06-27T08:00:00.101Z,1009.12
2018-06-27T08:01:00.082Z,1009.12
2018-06-27T08:02:00.083Z,1009.18
2018-06-27T08:03:00.090Z,1009.21
2018-06-27T08:04:00.101Z,1009.18
2018-06-27T08:05:00.114Z,1009.15
2018-06-27T08:06:00.222Z,1009.15
2018-06-27T08:07:00.128Z,1009.17
2018-06-27T08:08:00.140Z,1009.17
2018-06-27T08:09:00.148Z,1009.10
2018-06-27T08:10:00.157Z,1009.13
2018-06-27T08:11:00.172Z,1009.13
2018-06-27T08:12:00.181Z,1009.11
2018-06-27T08:13:00.189Z,1009.14
2018-06-27T08:14:00.199Z,1009.11
2018-06-27T08:15:00.212Z,1009.10
2018-06-27T08:16:00.220Z,1009.13
2018-06-27T08:17:00.232Z,1009.13
2018-06-27T08:18:00.465Z,1009.08
2018-06-27T08:19:00.260Z,1009.12
2018-06-27T08:20:00.267Z,1009.09
2018-06-27T08:21:00.277Z,1009.08
2018-06-27T08:22:00.290Z,1009.07
2018-06-27T08:23:00.299Z,1009.05
2018-06-27T08:24:00.311Z,1009.05
2018-06-27T08:25:00.327Z,1009.08
2018-06-27T08:26:00.380Z,1009.07
2018-06-27T08:27:00.347Z,1009.10
2018-06-27T08:28:00.361Z,1009.09
2018-06-27T08:29:00.373Z,1009.10
2018-06-27T08:30:00.386Z,1009.11
2018-06-27T08:31:00.396Z,1009.13
2018-06-27T08:32:00.407Z,1009.14
2018-06-27T08:33:00.420Z,1009.11
2018-06-27T08:34:00.432Z,1009.08
2018-06-27T08:35:00.445Z,1009.08
2018-06-27T08:36:00.457Z,1009.11
2018-06-27T08:37:00.473Z,1009.10
2018-06-27T08:38:00.483Z,1009.08
2018-06-27T08:39:00.495Z,1009.10
2018-06-27T08:40:00.509Z,1009.12
2018-06-27T08:41:00.527Z,1009.11
2018-06-27T08:42:00.742Z,1009.07
2018-06-27T08:43:00.547Z,1009.12
2018-06-27T08:44:00.561Z,1009.10
2018-06-27T08:46:00.591Z,1009.11
2018-06-27T08:47:00.600Z,1009.08
2018-06-27T08:48:00.623Z,1009.11
2018-06-27T08:49:00.627Z,1009.10
2018-06-27T08:50:00.648Z,1009.12
2018-06-27T08:51:00.654Z,1009.09
2018-06-27T08:52:00.669Z,1009.11
2018-06-27T08:53:00.687Z,1009.09
2018-06-27T08:54:00.697Z,1009.11
2018-06-27T08:55:00.712Z,1009.04
2018-06-27T08:56:00.722Z,1009.07
2018-06-27T08:57:00.736Z,1009.06
2018-06-27T08:58:00.956Z,1009.05
2018-06-27T08:59:00.763Z,1009.06
2018-06-27T09:00:00.779Z,1009.02
2018-06-27T09:01:00.791Z,1009.02
2018-06-27T09:02:00.809Z,1009.01
2018-06-27T09:03:00.828Z,1009.04
2018-06-27T09:04:00.833Z,1009.02
2018-06-27T09:05:00.848Z,1009.05
2018-06-27T09:06:00.861Z,1009.03
2018-06-27T09:07:00.875Z,1009.03
2018-06-27T09:08:00.899Z,1009.04
2018-06-27T09:09:00.904Z,1009.06
2018-06-27T09:10:01.120Z,1009.05
2018-06-27T09:11:00.932Z,1009.04
2018-06-27T09:12:00.947Z,1009.12
2018-06-27T09:13:00.964Z,1009.09
2018-06-27T09:14:01.178Z,1009.06
2018-06-27T09:15:00.990Z,1009.02
2018-06-27T09:16:01.005Z,1009.02
2018-06-27T09:17:01.222Z,1009.02
2018-06-27T09:18:01.037Z,1009.02
2018-06-27T09:19:01.050Z,1009.02
2018-06-27T09:20:01.064Z,1009.05
2018-06-27T09:21:01.083Z,1009.01
2018-06-27T09:22:01.095Z,1008.98
2018-06-27T09:23:01.111Z,1008.96
2018-06-27T09:24:01.123Z,1008.97
2018-06-27T09:25:01.141Z,1008.96
2018-06-27T09:26:01.153Z,1008.97
2018-06-27T09:27:01.171Z,1008.93
2018-06-27T09:28:01.184Z,1008.91
2018-06-27T09:29:01.200Z,1008.88
2018-06-27T09:30:01.215Z,1008.88
2018-06-27T09:31:01.232Z,1008.90
2018-06-27T09:32:01.252Z,1008.86
2018-06-27T09:33:01.262Z,1008.81
2018-06-27T09:34:01.331Z,1008.83
2018-06-27T09:35:01.295Z,1008.83
2018-06-27T09:36:01.312Z,1008.82
2018-06-27T09:37:01.324Z,1008.79
2018-06-27T09:38:01.339Z,1008.77
2018-06-27T09:39:01.355Z,1008.78
2018-06-27T09:40:01.395Z,1008.82
2018-06-27T09:41:01.387Z,1008.83
2018-06-27T09:42:01.491Z,1008.79
2018-06-27T09:43:01.418Z,1008.83
2018-06-27T09:44:01.434Z,1008.84
2018-06-27T09:45:01.468Z,1008.83
2018-06-27T09:46:01.472Z,1008.86
2018-06-27T09:47:01.482Z,1008.87
2018-06-27T09:48:01.549Z,1008.86
2018-06-27T09:49:01.514Z,1008.86
2018-06-27T09:50:01.532Z,1008.84
2018-06-27T09:51:01.748Z,1008.86
2018-06-27T09:52:01.561Z,1008.83
2018-06-27T09:53:01.579Z,1008.86
2018-06-27T09:54:01.597Z,1008.81
2018-06-27T09:55:01.609Z,1008.81
2018-06-27T09:56:01.627Z,1008.81
2018-06-27T09:57:01.708Z,1008.82
2018-06-27T09:58:01.658Z,1008.82
2018-06-27T09:59:01.674Z,1008.82
2018-06-27T10:00:01.692Z,1008.84
2018-06-27T10:01:01.713Z,1008.85
2018-06-27T10:02:01.756Z,1008.83
2018-06-27T10:03:01.741Z,1008.83
2018-06-27T10:04:01.960Z,1008.76
2018-06-27T10:05:01.785Z,1008.79
2018-06-27T10:06:01.789Z,1008.79
2018-06-27T10:07:01.806Z,1008.76
2018-06-27T10:08:01.830Z,1008.74
2018-06-27T10:09:01.847Z,1008.73
2018-06-27T10:10:01.859Z,1008.71
2018-06-27T10:11:01.886Z,1008.72
2018-06-27T10:12:01.892Z,1008.74
2018-06-27T10:13:01.910Z,1008.75
2018-06-27T10:14:01.925Z,1008.76
2018-06-27T10:15:01.942Z,1008.74
2018-06-27T10:16:01.964Z,1008.75
2018-06-27T10:17:02.060Z,1008.75
2018-06-27T10:18:01.992Z,1008.75
2018-06-27T10:19:02.011Z,1008.68
2018-06-27T10:20:02.031Z,1008.67
2018-06-27T10:21:02.045Z,1008.71
2018-06-27T10:22:02.059Z,1008.70
2018-06-27T10:23:02.077Z,1008.69
2018-06-27T10:24:02.094Z,1008.61
2018-06-27T10:25:02.118Z,1008.61
2018-06-27T10:26:02.134Z,1008.58
2018-06-27T10:27:02.148Z,1008.59
2018-06-27T10:28:02.165Z,1008.61
2018-06-27T10:29:02.181Z,1008.58
2018-06-27T10:30:02.197Z,1008.61
2018-06-27T10:31:02.214Z,1008.60
2018-06-27T10:32:02.231Z,1008.60
2018-06-27T10:33:02.252Z,1008.62
2018-06-27T10:34:02.265Z,1008.62
2018-06-27T10:35:02.487Z,1008.59
2018-06-27T10:36:02.304Z,1008.61
2018-06-27T10:37:02.320Z,1008.57
2018-06-27T10:38:02.338Z,1008.58
2018-06-27T10:39:02.352Z,1008.59
2018-06-27T10:40:02.373Z,1008.62
2018-06-27T10:41:02.387Z,1008.61
2018-06-27T10:42:02.406Z,1008.61
2018-06-27T10:43:02.424Z,1008.59
2018-06-27T10:44:02.440Z,1008.55
2018-06-27T10:45:02.460Z,1008.54
2018-06-27T10:46:02.474Z,1008.53
2018-06-27T10:47:02.492Z,1008.54
2018-06-27T10:48:02.520Z,1008.53
2018-06-27T10:49:02.531Z,1008.50
2018-06-27T10:50:02.544Z,1008.52
2018-06-27T10:51:02.565Z,1008.51
2018-06-27T10:52:02.586Z,1008.49
2018-06-27T10:53:02.601Z,1008.44
2018-06-27T10:54:02.615Z,1008.44
2018-06-27T10:55:02.635Z,1008.46
2018-06-27T10:56:02.652Z,1008.50
2018-06-27T10:57:02.677Z,1008.48
2018-06-27T10:58:02.697Z,1008.52
2018-06-27T10:59:02.709Z,1008.52
2018-06-27T11:00:02.723Z,1008.48
2018-06-27T11:01:02.802Z,1008.46
2018-06-27T11:02:02.759Z,1008.49
2018-06-27T11:03:02.777Z,1008.47
2018-06-27T11:04:02.798Z,1008.45
2018-06-27T11:05:02.814Z,1008.41
2018-06-27T11:06:02.831Z,1008.42
2018-06-27T11:07:02.849Z,1008.40
2018-06-27T11:08:02.868Z,1008.38
2018-06-27T11:09:02.889Z,1008.35
2018-06-27T11:10:02.904Z,1008.36
2018-06-27T11:11:02.932Z,1008.39
2018-06-27T11:12:02.941Z,1008.34
2018-06-27T11:13:02.962Z,1008.38
2018-06-27T11:14:02.979Z,1008.38
2018-06-27T11:15:03.002Z,1008.33
2018-06-27T11:16:03.015Z,1008.34
2018-06-27T11:17:03.039Z,1008.30
2018-06-27T11:18:03.052Z,1008.29
2018-06-27T11:19:03.075Z,1008.23
2018-06-27T11:20:03.093Z,1008.26
2018-06-27T11:21:03.108Z,1008.23
2018-06-27T11:22:03.128Z,1008.25
2018-06-27T11:23:03.146Z,1008.22
2018-06-27T11:24:03.168Z,1008.23
2018-06-27T11:25:03.183Z,1008.19
2018-06-27T11:26:03.203Z,1008.20
2018-06-27T11:27:03.295Z,1008.19
2018-06-27T11:28:03.239Z,1008.21
2018-06-27T11:29:03.263Z,1008.15
2018-06-27T11:30:03.276Z,1008.12
2018-06-27T11:31:03.298Z,1008.11
2018-06-27T11:32:03.313Z,1008.14
2018-06-27T11:33:03.333Z,1008.07
2018-06-27T11:34:03.351Z,1008.07
2018-06-27T11:35:03.371Z,1008.10
2018-06-27T11:36:03.389Z,1008.12
2018-06-27T11:37:03.411Z,1008.11
2018-06-27T11:38:03.428Z,1008.12
2018-06-27T11:39:03.446Z,1008.09
2018-06-27T11:40:03.466Z,1008.07
2018-06-27T11:41:03.481Z,1008.06
2018-06-27T11:42:03.499Z,1008.06
2018-06-27T11:43:03.521Z,1008.02
2018-06-27T11:44:03.535Z,1008.05
2018-06-27T11:45:03.554Z,1008.05
2018-06-27T11:46:03.779Z,1008.02
2018-06-27T11:47:03.589Z,1008.08
2018-06-27T11:48:03.610Z,1008.05
2018-06-27T11:49:03.627Z,1007.98
2018-06-27T11:50:03.643Z,1007.97
2018-06-27T11:51:03.667Z,1007.94
2018-06-27T11:52:03.683Z,1007.91
2018-06-27T11:53:03.700Z,1007.93
2018-06-27T11:54:03.714Z,1007.92
2018-06-27T11:55:03.939Z,1007.96
2018-06-27T11:56:03.755Z,1008.00
2018-06-27T11:57:03.770Z,1007.99
2018-06-27T11:58:03.787Z,1007.96
2018-06-27T11:59:03.808Z,1007.97
2018-06-27T12:00:03.824Z,1007.89
2018-06-27T12:01:03.842Z,1007.90
2018-06-27T12:02:03.864Z,1007.91
2018-06-27T12:03:03.880Z,1007.89
2018-06-27T12:04:03.896Z,1007.88
2018-06-27T12:05:03.918Z,1007.92
2018-06-27T12:06:03.933Z,1007.89